Time;durP1;ratioP1;P1;durP2;ratioP2;P2;SDS_P1;SDS_P2;PMS_P1;PMS_P2;Temp;Humidity;BMP_temperature;BMP_pressure;BME280_temperature;BME280_humidity;BME280_pressure;Samples;Min_cycle;Max_cycle;Signal;HPM_P1;HPM_P2
2023/03/11 00:01:31;;;;;;;;;;;5.80;86.10;;;;;;5094103;28;19954;-80
2023/03/11 00:03:58;;;;;;;;;;;5.70;86.30;;;;;;5093510;28;19932;-81
2023/03/11 00:06:25;;;;;;;;;;;5.70;86.40;;;;;;5098049;27;19931;-80
2023/03/11 00:08:52;;;;;;;;;;;5.70;86.50;;;;;;5091206;28;19939;-81
2023/03/11 00:11:21;;;;;;;;;;;5.70;86.50;;;;;;5096728;27;19936;-79
2023/03/11 00:13:47;;;;;;;;;;;5.70;86.60;;;;;;5095574;28;19938;-79
2023/03/11 00:16:14;;;;;;;;;;;5.70;86.80;;;;;;5091090;28;19932;-81
2023/03/11 00:18:42;;;;;;;;;;;5.70;87.00;;;;;;5093006;28;19935;-80
2023/03/11 00:21:14;;;;;;;;;;;5.70;87.20;;;;;;5091520;28;19938;-81
2023/03/11 00:23:40;;;;;;;;;;;5.70;87.40;;;;;;5087969;28;19936;-81
2023/03/11 00:26:07;;;;;;;;;;;5.70;87.60;;;;;;5091356;27;19950;-80
2023/03/11 00:28:33;;;;;;;;;;;5.60;87.50;;;;;;5099619;28;19928;-80
2023/03/11 00:31:00;;;;;;;;;;;5.70;87.70;;;;;;5093334;27;19982;-81
2023/03/11 00:33:26;;;;;;;;;;;5.70;87.70;;;;;;5093757;28;20454;-80
2023/03/11 00:35:55;;;;;;;;;;;5.60;87.60;;;;;;5096456;28;20398;-82
2023/03/11 00:38:22;;;;;;;;;;;5.60;87.50;;;;;;5098555;28;19935;-80
2023/03/11 00:40:49;;;;;;;;;;;5.60;87.40;;;;;;5094374;28;19931;-82
2023/03/11 00:43:16;;;;;;;;;;;5.50;87.10;;;;;;5094890;28;19989;-80
2023/03/11 00:45:43;;;;;;;;;;;5.50;87.00;;;;;;5094719;28;20000;-80
2023/03/11 00:48:09;;;;;;;;;;;5.60;87.00;;;;;;5102446;27;19928;-80
2023/03/11 00:50:36;;;;;;;;;;;5.50;86.80;;;;;;5097160;27;19931;-81
2023/03/11 00:53:04;;;;;;;;;;;5.50;86.80;;;;;;5105955;28;19928;-81
2023/03/11 00:55:32;;;;;;;;;;;5.50;86.80;;;;;;5098370;28;19928;-80
2023/03/11 00:57:59;;;;;;;;;;;5.50;86.60;;;;;;5104477;27;19988;-80
2023/03/11 01:00:27;;;;;;;;;;;5.50;86.60;;;;;;5097196;28;20014;-80
2023/03/11 01:02:54;;;;;;;;;;;5.50;86.60;;;;;;5095731;28;19928;-81
2023/03/11 01:05:22;;;;;;;;;;;5.40;86.60;;;;;;5096264;27;19932;-82
2023/03/11 01:07:48;;;;;;;;;;;5.50;86.60;;;;;;5102389;27;20412;-81
2023/03/11 01:10:16;;;;;;;;;;;5.40;86.50;;;;;;5104193;27;20428;-81
2023/03/11 01:12:44;;;;;;;;;;;5.40;86.40;;;;;;5102403;28;19935;-82
2023/03/11 01:15:14;;;;;;;;;;;5.40;86.40;;;;;;5097047;27;19931;-80
2023/03/11 01:17:41;;;;;;;;;;;5.40;86.30;;;;;;5098599;27;19927;-81
2023/03/11 01:20:09;;;;;;;;;;;5.30;86.20;;;;;;5096598;27;19961;-81
2023/03/11 01:22:35;;;;;;;;;;;5.30;86.10;;;;;;5101159;27;19932;-80
2023/03/11 01:25:02;;;;;;;;;;;5.30;86.10;;;;;;5101200;28;20020;-81
2023/03/11 01:27:29;;;;;;;;;;;5.30;86.10;;;;;;5098447;27;19932;-81
2023/03/11 01:29:57;;;;;;;;;;;5.30;86.00;;;;;;5096231;28;19927;-81
2023/03/11 01:32:24;;;;;;;;;;;5.30;85.90;;;;;;5097608;27;19931;-82
2023/03/11 01:34:50;;;;;;;;;;;5.30;85.60;;;;;;5098445;27;19932;-81
2023/03/11 01:37:19;;;;;;;;;;;5.20;85.50;;;;;;5099323;27;19958;-82
2023/03/11 01:39:45;;;;;;;;;;;5.20;85.30;;;;;;5096582;28;19953;-79
2023/03/11 01:42:12;;;;;;;;;;;5.20;85.10;;;;;;5094256;27;19928;-80
2023/03/11 01:44:38;;;;;;;;;;;5.20;85.00;;;;;;5100613;27;19993;-80
2023/03/11 01:47:19;;;;;;;;;;;5.20;85.00;;;;;;5092582;28;20297;-81
2023/03/11 01:49:48;;;;;;;;;;;5.10;84.90;;;;;;5084491;28;20000;-81
2023/03/11 01:52:15;;;;;;;;;;;5.10;85.00;;;;;;5098158;28;19928;-79
2023/03/11 01:54:41;;;;;;;;;;;5.10;84.80;;;;;;5102812;28;19935;-81
2023/03/11 01:57:10;;;;;;;;;;;5.10;84.80;;;;;;5100885;27;19935;-83
2023/03/11 01:59:38;;;;;;;;;;;5.00;84.70;;;;;;5099277;27;19928;-80
2023/03/11 02:02:08;;;;;;;;;;;5.00;84.60;;;;;;5099904;28;19932;-81
2023/03/11 02:04:37;;;;;;;;;;;5.00;84.50;;;;;;5095569;27;20198;-80
2023/03/11 02:07:07;;;;;;;;;;;5.00;84.60;;;;;;5095714;28;19938;-80
2023/03/11 02:09:33;;;;;;;;;;;5.00;84.70;;;;;;5100050;27;20343;-80
2023/03/11 02:12:00;;;;;;;;;;;5.00;84.80;;;;;;5095896;28;19981;-80
2023/03/11 02:14:29;;;;;;;;;;;4.90;84.90;;;;;;5093876;28;19973;-81
2023/03/11 02:16:57;;;;;;;;;;;4.90;85.00;;;;;;5096266;28;19934;-80
2023/03/11 02:19:28;;;;;;;;;;;4.90;85.20;;;;;;5099297;28;19932;-81
2023/03/11 02:21:56;;;;;;;;;;;4.90;85.50;;;;;;5099379;28;20643;-82
2023/03/11 02:24:25;;;;;;;;;;;4.90;85.50;;;;;;5098904;27;19972;-80
2023/03/11 02:26:55;;;;;;;;;;;4.80;85.70;;;;;;5099071;28;20590;-79
2023/03/11 02:29:22;;;;;;;;;;;4.80;85.80;;;;;;5100616;28;20043;-82
2023/03/11 02:31:49;;;;;;;;;;;4.80;86.00;;;;;;5080197;28;19939;-80
2023/03/11 02:34:18;;;;;;;;;;;4.80;86.10;;;;;;5077194;28;19935;-82
2023/03/11 02:36:45;;;;;;;;;;;4.80;86.30;;;;;;5079115;28;19932;-80
2023/03/11 02:39:11;;;;;;;;;;;4.70;86.30;;;;;;5077610;28;19932;-80
2023/03/11 02:41:38;;;;;;;;;;;4.70;86.40;;;;;;5076217;28;19983;-80
2023/03/11 02:44:07;;;;;;;;;;;4.70;86.40;;;;;;5077016;28;19925;-82
2023/03/11 02:46:34;;;;;;;;;;;4.60;86.20;;;;;;5087849;28;19942;-81
2023/03/11 02:49:01;;;;;;;;;;;4.60;86.10;;;;;;5089225;27;20582;-82
2023/03/11 02:51:28;;;;;;;;;;;4.60;86.10;;;;;;5097192;27;19928;-81
2023/03/11 02:53:56;;;;;;;;;;;4.50;86.00;;;;;;5098673;27;20420;-80
2023/03/11 02:56:23;;;;;;;;;;;4.60;86.10;;;;;;5094165;27;19981;-80
2023/03/11 02:58:49;;;;;;;;;;;4.50;86.10;;;;;;5099547;28;19931;-81
2023/03/11 03:01:17;;;;;;;;;;;4.50;86.10;;;;;;5092873;28;19932;-81
2023/03/11 03:03:43;;;;;;;;;;;4.50;86.20;;;;;;5087165;27;19936;-78
2023/03/11 03:06:10;;;;;;;;;;;4.50;86.20;;;;;;5087457;28;20452;-80
2023/03/11 03:08:36;;;;;;;;;;;4.50;86.20;;;;;;5089635;28;20336;-80
2023/03/11 03:11:03;;;;;;;;;;;4.50;86.20;;;;;;5086610;28;19980;-81
2023/03/11 03:13:31;;;;;;;;;;;4.40;86.10;;;;;;5089553;28;19990;-79
2023/03/11 03:15:57;;;;;;;;;;;4.40;86.10;;;;;;5086426;27;19928;-81
2023/03/11 03:18:25;;;;;;;;;;;4.40;86.10;;;;;;5085488;28;19931;-80
2023/03/11 03:20:52;;;;;;;;;;;4.40;86.00;;;;;;5088174;28;19934;-81
2023/03/11 03:23:18;;;;;;;;;;;4.30;85.90;;;;;;5089647;28;19980;-80
2023/03/11 03:25:45;;;;;;;;;;;4.30;85.80;;;;;;5087126;27;19928;-80
2023/03/11 03:28:12;;;;;;;;;;;4.30;85.80;;;;;;5091459;28;20951;-80
2023/03/11 03:30:39;;;;;;;;;;;4.30;85.80;;;;;;5090987;27;20605;-80
2023/03/11 03:33:06;;;;;;;;;;;4.30;85.90;;;;;;5090152;28;19927;-81
2023/03/11 03:35:34;;;;;;;;;;;4.30;85.90;;;;;;5089832;28;20637;-79
2023/03/11 03:38:01;;;;;;;;;;;4.20;85.90;;;;;;5092819;28;19932;-80
2023/03/11 03:40:28;;;;;;;;;;;4.20;86.00;;;;;;5090022;28;19935;-79
2023/03/11 03:42:54;;;;;;;;;;;4.20;86.00;;;;;;5087955;28;19932;-80
2023/03/11 03:45:21;;;;;;;;;;;4.20;86.10;;;;;;5085657;27;19932;-81
2023/03/11 03:47:47;;;;;;;;;;;4.20;86.10;;;;;;5086129;28;20553;-80
2023/03/11 03:50:14;;;;;;;;;;;4.10;86.00;;;;;;5085997;28;19936;-80
2023/03/11 03:52:41;;;;;;;;;;;4.10;86.00;;;;;;5087607;28;19928;-80
2023/03/11 03:55:08;;;;;;;;;;;4.10;86.10;;;;;;5092182;28;19927;-80
2023/03/11 03:57:35;;;;;;;;;;;4.10;86.00;;;;;;5100188;27;19933;-81
2023/03/11 04:00:03;;;;;;;;;;;4.10;86.00;;;;;;5088448;28;19936;-81
2023/03/11 04:02:30;;;;;;;;;;;4.00;85.90;;;;;;5089914;28;20313;-81
2023/03/11 04:04:57;;;;;;;;;;;4.00;86.00;;;;;;5090806;28;19932;-80
2023/03/11 04:07:23;;;;;;;;;;;4.00;86.00;;;;;;5094840;28;19927;-81
2023/03/11 04:09:51;;;;;;;;;;;3.90;85.80;;;;;;5097493;28;19935;-80
2023/03/11 04:12:18;;;;;;;;;;;3.90;85.90;;;;;;5097030;28;19984;-79
2023/03/11 04:14:44;;;;;;;;;;;3.90;86.00;;;;;;5094208;28;19924;-82
2023/03/11 04:17:11;;;;;;;;;;;3.90;86.00;;;;;;5098009;27;19931;-80
2023/03/11 04:19:38;;;;;;;;;;;3.90;86.00;;;;;;5096638;28;19961;-80
2023/03/11 04:22:04;;;;;;;;;;;3.80;86.10;;;;;;5094588;28;19930;-80
2023/03/11 04:24:31;;;;;;;;;;;3.80;86.10;;;;;;5094929;28;19927;-80
2023/03/11 04:26:59;;;;;;;;;;;3.80;86.00;;;;;;5093896;28;19927;-80
2023/03/11 04:29:25;;;;;;;;;;;3.80;86.10;;;;;;5101382;28;19938;-81
2023/03/11 04:31:52;;;;;;;;;;;3.80;86.20;;;;;;5096533;28;19957;-80
2023/03/11 04:34:18;;;;;;;;;;;3.80;86.30;;;;;;5095656;28;19928;-80
2023/03/11 04:36:45;;;;;;;;;;;3.80;86.20;;;;;;5095787;28;19932;-79
2023/03/11 04:39:12;;;;;;;;;;;3.70;86.20;;;;;;5090365;28;19928;-80
2023/03/11 04:41:38;;;;;;;;;;;3.70;86.20;;;;;;5093159;28;19928;-79
2023/03/11 04:44:06;;;;;;;;;;;3.70;86.30;;;;;;5086891;28;19935;-80
2023/03/11 04:46:33;;;;;;;;;;;3.60;86.20;;;;;;5088464;27;19928;-80
2023/03/11 04:48:59;;;;;;;;;;;3.70;86.30;;;;;;5087907;28;19928;-79
2023/03/11 04:51:26;;;;;;;;;;;3.60;86.40;;;;;;5093246;28;19939;-80
2023/03/11 04:53:52;;;;;;;;;;;3.70;86.50;;;;;;5090638;28;19940;-79
2023/03/11 04:56:19;;;;;;;;;;;3.60;86.50;;;;;;5092099;28;19957;-81
2023/03/11 04:58:45;;;;;;;;;;;3.60;86.50;;;;;;5090316;28;19935;-81
2023/03/11 05:01:13;;;;;;;;;;;3.60;86.50;;;;;;5091799;28;20629;-79
2023/03/11 05:03:40;;;;;;;;;;;3.60;86.50;;;;;;5090329;28;19937;-79
2023/03/11 05:06:07;;;;;;;;;;;3.50;86.40;;;;;;5097414;28;19939;-81
2023/03/11 05:08:33;;;;;;;;;;;3.50;86.40;;;;;;5096145;28;19943;-82
2023/03/11 05:11:00;;;;;;;;;;;3.50;86.50;;;;;;5096623;28;20375;-81
2023/03/11 05:13:26;;;;;;;;;;;3.50;86.60;;;;;;5100026;28;20651;-80
2023/03/11 05:15:53;;;;;;;;;;;3.50;86.60;;;;;;5099891;28;19931;-80
2023/03/11 05:18:20;;;;;;;;;;;3.50;86.70;;;;;;5097612;28;19928;-80
2023/03/11 05:20:47;;;;;;;;;;;3.40;86.70;;;;;;5096264;28;19973;-80
2023/03/11 05:23:13;;;;;;;;;;;3.40;86.80;;;;;;5098378;28;19973;-80
2023/03/11 05:25:40;;;;;;;;;;;3.40;86.80;;;;;;5098837;28;19932;-81
2023/03/11 05:28:07;;;;;;;;;;;3.40;87.20;;;;;;5101576;28;19927;-81
2023/03/11 05:30:33;;;;;;;;;;;3.40;87.00;;;;;;5095059;28;20398;-80
2023/03/11 05:33:00;;;;;;;;;;;3.40;87.00;;;;;;5100379;28;20430;-81
2023/03/11 05:35:28;;;;;;;;;;;3.40;87.10;;;;;;5102450;27;20446;-82
2023/03/11 05:37:55;;;;;;;;;;;3.30;87.10;;;;;;5105717;28;20211;-81
2023/03/11 05:40:21;;;;;;;;;;;3.30;87.20;;;;;;5101742;28;19939;-80
2023/03/11 05:42:48;;;;;;;;;;;3.30;87.30;;;;;;5100367;28;20347;-81
2023/03/11 05:45:15;;;;;;;;;;;3.30;87.30;;;;;;5092663;28;20377;-79
2023/03/11 05:47:42;;;;;;;;;;;3.30;87.30;;;;;;5097411;28;20916;-81
2023/03/11 05:50:09;;;;;;;;;;;3.30;87.30;;;;;;5094251;27;20305;-81
2023/03/11 05:52:37;;;;;;;;;;;3.30;87.40;;;;;;5090935;28;19932;-82
2023/03/11 05:55:04;;;;;;;;;;;3.20;87.30;;;;;;5095569;28;19935;-82
2023/03/11 05:57:30;;;;;;;;;;;3.20;88.00;;;;;;5096406;27;19977;-81
2023/03/11 05:59:57;;;;;;;;;;;3.20;87.20;;;;;;5102239;28;19999;-81
2023/03/11 06:02:24;;;;;;;;;;;3.20;87.30;;;;;;5100131;27;19940;-81
2023/03/11 06:04:50;;;;;;;;;;;3.20;87.40;;;;;;5093766;28;20065;-81
2023/03/11 06:07:17;;;;;;;;;;;3.20;87.50;;;;;;5092304;27;19935;-81
2023/03/11 06:09:45;;;;;;;;;;;3.20;87.60;;;;;;5093809;28;20017;-80
2023/03/11 06:12:11;;;;;;;;;;;3.10;87.50;;;;;;5100249;28;19942;-80
2023/03/11 06:14:38;;;;;;;;;;;3.10;87.50;;;;;;5096288;28;20469;-82
2023/03/11 06:17:04;;;;;;;;;;;3.10;87.60;;;;;;5093399;28;20378;-82
2023/03/11 06:19:31;;;;;;;;;;;3.10;87.60;;;;;;5098479;27;19953;-81
2023/03/11 06:21:57;;;;;;;;;;;3.00;87.60;;;;;;5098572;28;19993;-80
2023/03/11 06:24:24;;;;;;;;;;;3.10;87.70;;;;;;5095731;27;19927;-81
2023/03/11 06:26:52;;;;;;;;;;;3.00;87.80;;;;;;5102379;28;20049;-81
2023/03/11 06:29:20;;;;;;;;;;;3.10;87.90;;;;;;5095236;28;19932;-82
2023/03/11 06:31:47;;;;;;;;;;;3.00;87.80;;;;;;5104116;28;20011;-80
2023/03/11 06:34:13;;;;;;;;;;;3.00;87.80;;;;;;5097024;28;19936;-81
2023/03/11 06:36:40;;;;;;;;;;;3.00;87.80;;;;;;5097580;28;19928;-80
2023/03/11 06:39:06;;;;;;;;;;;3.00;87.80;;;;;;5088570;28;19931;-81
2023/03/11 06:41:33;;;;;;;;;;;3.00;87.70;;;;;;5091010;28;19935;-80
2023/03/11 06:44:01;;;;;;;;;;;2.90;87.60;;;;;;5097364;28;20447;-79
2023/03/11 06:46:28;;;;;;;;;;;2.90;87.60;;;;;;5092216;28;19994;-80
2023/03/11 06:48:54;;;;;;;;;;;3.00;87.70;;;;;;5095610;28;19932;-79
2023/03/11 06:51:21;;;;;;;;;;;2.90;87.70;;;;;;5098259;27;20059;-80
2023/03/11 06:53:48;;;;;;;;;;;2.90;87.70;;;;;;5097683;28;19951;-80
2023/03/11 06:56:15;;;;;;;;;;;2.90;87.70;;;;;;5091864;28;19928;-80
2023/03/11 06:58:42;;;;;;;;;;;2.90;87.70;;;;;;5100598;28;19989;-80
2023/03/11 07:01:11;;;;;;;;;;;2.90;87.70;;;;;;5096617;28;19931;-79
2023/03/11 07:03:37;;;;;;;;;;;2.90;87.80;;;;;;5096676;28;19953;-79
2023/03/11 07:06:04;;;;;;;;;;;2.90;87.80;;;;;;5096327;28;19928;-81
2023/03/11 07:08:31;;;;;;;;;;;2.90;87.80;;;;;;5090967;28;19931;-80
2023/03/11 07:11:01;;;;;;;;;;;2.80;87.80;;;;;;5098277;28;19923;-81
2023/03/11 07:13:28;;;;;;;;;;;2.90;87.90;;;;;;5094470;28;20876;-71
2023/03/11 07:16:01;;;;;;;;;;;2.90;88.00;;;;;;5098505;28;19928;-70
2023/03/11 07:18:29;;;;;;;;;;;2.90;88.00;;;;;;5091335;28;19935;-71
2023/03/11 07:20:55;;;;;;;;;;;2.90;87.90;;;;;;5096466;28;19928;-70
2023/03/11 07:23:22;;;;;;;;;;;2.80;87.80;;;;;;5098958;27;19972;-69
2023/03/11 07:25:50;;;;;;;;;;;2.90;87.80;;;;;;5100995;28;20372;-71
2023/03/11 07:28:17;;;;;;;;;;;2.90;87.90;;;;;;5093978;28;20312;-70
2023/03/11 07:30:45;;;;;;;;;;;2.90;87.90;;;;;;5097329;27;19931;-70
2023/03/11 07:33:12;;;;;;;;;;;2.90;88.00;;;;;;5100111;27;19928;-70
2023/03/11 07:35:39;;;;;;;;;;;2.90;88.10;;;;;;5096385;27;19931;-71
2023/03/11 07:38:06;;;;;;;;;;;2.80;88.10;;;;;;5091986;27;19935;-70
2023/03/11 07:40:32;;;;;;;;;;;2.80;88.00;;;;;;5099110;27;20695;-70
2023/03/11 07:42:59;;;;;;;;;;;2.90;88.00;;;;;;5095107;28;19936;-71
2023/03/11 07:45:26;;;;;;;;;;;2.80;88.00;;;;;;5098520;27;19936;-70
2023/03/11 07:47:52;;;;;;;;;;;2.80;88.10;;;;;;5100923;28;19981;-71
2023/03/11 07:50:21;;;;;;;;;;;2.80;88.10;;;;;;5100044;27;19931;-70
2023/03/11 07:52:48;;;;;;;;;;;2.80;88.20;;;;;;5094559;27;19934;-71
2023/03/11 07:55:15;;;;;;;;;;;2.80;88.20;;;;;;5098897;27;19938;-71
2023/03/11 07:57:42;;;;;;;;;;;2.80;88.20;;;;;;5090325;28;19928;-70
2023/03/11 08:00:11;;;;;;;;;;;2.80;88.20;;;;;;5089387;27;19932;-70
2023/03/11 08:02:37;;;;;;;;;;;2.80;88.30;;;;;;5095944;27;19935;-71
2023/03/11 08:05:04;;;;;;;;;;;2.80;88.90;;;;;;5096017;28;20285;-70
2023/03/11 08:07:31;;;;;;;;;;;2.80;88.20;;;;;;5097266;27;19992;-72
2023/03/11 08:09:59;;;;;;;;;;;2.80;88.20;;;;;;5096606;28;19928;-70
2023/03/11 08:12:26;;;;;;;;;;;2.80;88.10;;;;;;5095494;28;20729;-70
2023/03/11 08:14:52;;;;;;;;;;;2.80;88.00;;;;;;5095042;28;19981;-70
2023/03/11 08:17:19;;;;;;;;;;;2.80;88.00;;;;;;5099560;27;19931;-71
2023/03/11 08:19:45;;;;;;;;;;;2.80;88.00;;;;;;5098810;28;19981;-70
2023/03/11 08:22:12;;;;;;;;;;;2.80;88.00;;;;;;5091107;27;19932;-71
2023/03/11 08:24:38;;;;;;;;;;;2.80;88.00;;;;;;5104305;27;19972;-70
2023/03/11 08:27:08;;;;;;;;;;;2.90;88.00;;;;;;5097984;28;19988;-69
2023/03/11 08:29:35;;;;;;;;;;;2.90;87.90;;;;;;5092561;28;19945;-70
2023/03/11 08:32:02;;;;;;;;;;;2.90;88.00;;;;;;5094985;27;19950;-70
2023/03/11 08:34:29;;;;;;;;;;;2.90;87.80;;;;;;5095668;28;19931;-72
2023/03/11 08:36:56;;;;;;;;;;;3.00;87.80;;;;;;5087839;28;19997;-70
2023/03/11 08:39:22;;;;;;;;;;;3.00;87.70;;;;;;5093784;28;19928;-71
2023/03/11 08:41:49;;;;;;;;;;;3.00;87.50;;;;;;5098712;28;19934;-70
2023/03/11 08:44:17;;;;;;;;;;;3.10;87.40;;;;;;5096667;28;19928;-71
2023/03/11 08:46:44;;;;;;;;;;;3.10;87.20;;;;;;5099919;27;19927;-71
2023/03/11 08:49:10;;;;;;;;;;;3.10;87.00;;;;;;5103063;28;20015;-70
2023/03/11 08:51:37;;;;;;;;;;;3.20;86.80;;;;;;5096349;28;19932;-71
2023/03/11 08:54:04;;;;;;;;;;;3.30;86.70;;;;;;5099152;28;19928;-71
2023/03/11 08:56:30;;;;;;;;;;;3.30;86.30;;;;;;5101825;28;19928;-71
2023/03/11 08:58:57;;;;;;;;;;;3.30;86.10;;;;;;5091395;28;19973;-71
2023/03/11 09:01:25;;;;;;;;;;;3.40;86.00;;;;;;5092598;27;19928;-72
2023/03/11 09:03:51;;;;;;;;;;;3.50;85.80;;;;;;5095607;28;19932;-72
2023/03/11 09:06:18;;;;;;;;;;;3.50;85.70;;;;;;5094518;28;19928;-72
2023/03/11 09:08:45;;;;;;;;;;;3.50;85.50;;;;;;5094130;27;20449;-71
2023/03/11 09:11:12;;;;;;;;;;;3.60;85.30;;;;;;5097943;28;19939;-73
2023/03/11 09:13:39;;;;;;;;;;;3.60;85.30;;;;;;5100082;27;19974;-71
2023/03/11 09:16:06;;;;;;;;;;;3.70;85.10;;;;;;5094357;28;20014;-71
2023/03/11 09:18:34;;;;;;;;;;;3.80;84.60;;;;;;5097645;27;19928;-70
2023/03/11 09:21:01;;;;;;;;;;;3.80;84.30;;;;;;5096119;28;19927;-70
2023/03/11 09:23:27;;;;;;;;;;;3.80;83.80;;;;;;5101241;27;20790;-70
2023/03/11 09:25:54;;;;;;;;;;;3.90;83.60;;;;;;5095794;28;19928;-71
2023/03/11 09:28:20;;;;;;;;;;;4.00;83.50;;;;;;5093766;28;19928;-70
2023/03/11 09:30:47;;;;;;;;;;;4.00;83.20;;;;;;5104251;27;19989;-71
2023/03/11 09:33:13;;;;;;;;;;;4.10;82.90;;;;;;5100478;27;20319;-69
2023/03/11 09:35:41;;;;;;;;;;;4.10;83.50;;;;;;5096229;27;21322;-69
2023/03/11 09:38:08;;;;;;;;;;;4.20;83.00;;;;;;5095053;27;19928;-70
2023/03/11 09:40:42;;;;;;;;;;;4.20;83.20;;;;;;5101049;27;19927;-69
2023/03/11 09:43:16;;;;;;;;;;;4.20;82.70;;;;;;5102757;28;19931;-71
2023/03/11 09:45:45;;;;;;;;;;;4.20;82.40;;;;;;5097051;27;20008;-69
2023/03/11 09:48:18;;;;;;;;;;;4.30;82.00;;;;;;5099154;27;19955;-69
2023/03/11 09:50:48;;;;;;;;;;;4.30;82.30;;;;;;5098246;27;19974;-70
2023/03/11 09:53:22;;;;;;;;;;;4.40;82.80;;;;;;5096169;27;20054;-70
2023/03/11 09:55:50;;;;;;;;;;;4.40;82.90;;;;;;5098733;28;19928;-69
2023/03/11 09:58:19;;;;;;;;;;;4.50;82.80;;;;;;5097285;28;19928;-70
2023/03/11 10:00:46;;;;;;;;;;;4.60;81.80;;;;;;5095119;27;19957;-70
2023/03/11 10:03:17;;;;;;;;;;;4.70;81.50;;;;;;5092065;28;19936;-70
2023/03/11 10:05:45;;;;;;;;;;;4.80;81.70;;;;;;5097770;28;19957;-69
2023/03/11 10:08:16;;;;;;;;;;;4.90;81.00;;;;;;5091499;28;20382;-69
2023/03/11 10:10:45;;;;;;;;;;;4.90;80.60;;;;;;5094776;28;19981;-71
2023/03/11 10:13:14;;;;;;;;;;;5.00;81.00;;;;;;5095227;28;19973;-70
2023/03/11 10:15:47;;;;;;;;;;;5.10;80.50;;;;;;5100630;27;19977;-71
2023/03/11 10:18:23;;;;;;;;;;;5.20;80.20;;;;;;5099953;28;19972;-69
2023/03/11 10:20:53;;;;;;;;;;;5.30;80.40;;;;;;5095742;27;19928;-70
2023/03/11 10:23:25;;;;;;;;;;;5.30;80.20;;;;;;5093785;27;19923;-70
2023/03/11 10:25:56;;;;;;;;;;;5.40;79.80;;;;;;5097712;28;19932;-71
2023/03/11 10:28:27;;;;;;;;;;;5.50;78.80;;;;;;5103378;28;20290;-70
2023/03/11 10:30:56;;;;;;;;;;;5.60;78.40;;;;;;5095627;27;20473;-71
2023/03/11 10:33:25;;;;;;;;;;;5.70;77.40;;;;;;5095863;27;19932;-71
2023/03/11 10:35:52;;;;;;;;;;;5.70;78.10;;;;;;5096850;27;19924;-72
2023/03/11 10:38:21;;;;;;;;;;;5.70;77.10;;;;;;5095263;28;19928;-70
2023/03/11 10:40:50;;;;;;;;;;;5.70;77.60;;;;;;5091801;27;19972;-69
2023/03/11 10:43:19;;;;;;;;;;;5.70;77.70;;;;;;5098738;28;20023;-70
2023/03/11 10:45:47;;;;;;;;;;;5.70;76.50;;;;;;5092861;27;19928;-69
2023/03/11 10:48:14;;;;;;;;;;;5.70;78.00;;;;;;5093484;28;20719;-70
2023/03/11 10:50:45;;;;;;;;;;;5.60;77.70;;;;;;5094226;27;19928;-74
2023/03/11 10:53:14;;;;;;;;;;;5.60;78.40;;;;;;5098814;28;19928;-71
2023/03/11 10:55:45;;;;;;;;;;;5.50;78.10;;;;;;5098503;28;19936;-71
2023/03/11 10:58:14;;;;;;;;;;;5.50;78.40;;;;;;5099893;28;19935;-71
2023/03/11 11:00:41;;;;;;;;;;;5.40;78.70;;;;;;5095804;27;19953;-71
2023/03/11 11:03:14;;;;;;;;;;;5.40;78.30;;;;;;5096656;28;19928;-71
2023/03/11 11:05:41;;;;;;;;;;;5.30;78.70;;;;;;5099933;27;19932;-71
2023/03/11 11:08:10;;;;;;;;;;;5.30;78.40;;;;;;5094518;28;19939;-71
2023/03/11 11:10:37;;;;;;;;;;;5.30;78.90;;;;;;5098421;28;19935;-71
2023/03/11 11:13:16;;;;;;;;;;;5.30;78.80;;;;;;5092137;28;19932;-70
2023/03/11 11:15:51;;;;;;;;;;;5.30;79.90;;;;;;5096755;28;19932;-70
2023/03/11 11:18:20;;;;;;;;;;;5.30;80.10;;;;;;5092233;27;19927;-71
2023/03/11 11:20:53;;;;;;;;;;;5.20;79.70;;;;;;5095579;27;19954;-71
2023/03/11 11:23:25;;;;;;;;;;;5.30;80.20;;;;;;5100255;28;19928;-71
2023/03/11 11:25:56;;;;;;;;;;;5.30;79.00;;;;;;5095550;28;19928;-70
2023/03/11 11:28:25;;;;;;;;;;;5.30;77.80;;;;;;5095432;28;20355;-71
2023/03/11 11:30:52;;;;;;;;;;;5.40;76.90;;;;;;5094734;27;19931;-71
2023/03/11 11:33:22;;;;;;;;;;;5.50;76.80;;;;;;5094531;28;19935;-71
2023/03/11 11:35:49;;;;;;;;;;;5.60;76.70;;;;;;5097768;27;20011;-70
2023/03/11 11:38:16;;;;;;;;;;;5.70;76.90;;;;;;5099501;27;19928;-71
2023/03/11 11:40:42;;;;;;;;;;;5.90;75.10;;;;;;5091301;28;19977;-72
2023/03/11 11:43:12;;;;;;;;;;;6.00;74.60;;;;;;5093802;28;19974;-70
2023/03/11 11:45:41;;;;;;;;;;;6.10;75.60;;;;;;5089362;27;19924;-70
2023/03/11 11:48:14;;;;;;;;;;;6.10;75.20;;;;;;5094166;28;19997;-72
2023/03/11 11:50:42;;;;;;;;;;;6.20;75.20;;;;;;5097341;28;19935;-71
2023/03/11 11:53:14;;;;;;;;;;;6.20;73.60;;;;;;5093663;28;19928;-72
2023/03/11 11:55:44;;;;;;;;;;;6.20;73.70;;;;;;5095518;27;19928;-72
2023/03/11 11:58:11;;;;;;;;;;;6.30;73.50;;;;;;5093149;28;19932;-73
2023/03/11 12:00:43;;;;;;;;;;;6.30;72.60;;;;;;5093328;27;19975;-71
2023/03/11 12:03:19;;;;;;;;;;;6.30;72.70;;;;;;5088578;27;19928;-72
2023/03/11 12:05:50;;;;;;;;;;;6.30;72.80;;;;;;5095977;28;19983;-71
2023/03/11 12:08:18;;;;;;;;;;;6.30;73.90;;;;;;5101205;27;19928;-70
2023/03/11 12:10:48;;;;;;;;;;;6.20;73.20;;;;;;5087961;28;20515;-71
2023/03/11 12:13:21;;;;;;;;;;;6.20;73.00;;;;;;5092896;28;20595;-70
2023/03/11 12:15:49;;;;;;;;;;;6.20;73.90;;;;;;5093857;27;19928;-71
2023/03/11 12:18:20;;;;;;;;;;;6.10;72.70;;;;;;5094258;28;19928;-70
2023/03/11 12:20:49;;;;;;;;;;;6.10;73.20;;;;;;5091982;28;20016;-70
2023/03/11 12:23:17;;;;;;;;;;;6.10;73.90;;;;;;5089072;28;19932;-70
2023/03/11 12:25:48;;;;;;;;;;;6.10;73.60;;;;;;5098546;28;19932;-70
2023/03/11 12:28:17;;;;;;;;;;;6.00;73.00;;;;;;5093828;28;19928;-70
2023/03/11 12:30:45;;;;;;;;;;;6.00;72.80;;;;;;5093439;27;19939;-70
2023/03/11 12:33:15;;;;;;;;;;;6.00;73.80;;;;;;5090779;28;19977;-72
2023/03/11 12:35:49;;;;;;;;;;;6.00;74.50;;;;;;5090938;28;20447;-72
2023/03/11 12:38:17;;;;;;;;;;;6.00;73.40;;;;;;5089497;28;19955;-71
2023/03/11 12:40:48;;;;;;;;;;;6.00;73.40;;;;;;5091997;28;20488;-71
2023/03/11 12:43:25;;;;;;;;;;;6.00;73.40;;;;;;5090496;27;19935;-71
2023/03/11 12:45:54;;;;;;;;;;;6.00;73.30;;;;;;5087520;27;19928;-70
2023/03/11 12:48:34;;;;;;;;;;;6.00;73.90;;;;;;5097945;28;19928;-70
2023/03/11 12:51:02;;;;;;;;;;;6.10;73.40;;;;;;5091408;28;20001;-72
2023/03/11 12:53:42;;;;;;;;;;;6.10;74.10;;;;;;5091662;28;19935;-70
2023/03/11 12:56:13;;;;;;;;;;;6.20;72.80;;;;;;5090714;28;19928;-71
2023/03/11 12:58:51;;;;;;;;;;;6.30;72.80;;;;;;5094216;28;19935;-70
2023/03/11 13:01:39;;;;;;;;;;;6.40;72.90;;;;;;5092921;28;19932;-72
2023/03/11 13:04:15;;;;;;;;;;;6.60;72.80;;;;;;5090283;28;19934;-70
2023/03/11 13:06:52;;;;;;;;;;;6.70;71.00;;;;;;5087064;28;19935;-71
2023/03/11 13:09:19;;;;;;;;;;;6.80;70.80;;;;;;5091892;28;19928;-72
2023/03/11 13:11:46;;;;;;;;;;;7.00;71.50;;;;;;5089565;28;19950;-70
2023/03/11 13:14:22;;;;;;;;;;;7.10;71.70;;;;;;5085897;28;19996;-71
2023/03/11 13:16:49;;;;;;;;;;;7.20;70.70;;;;;;5088227;28;20011;-71
2023/03/11 13:19:43;;;;;;;;;;;7.30;70.10;;;;;;5095379;28;20420;-69
2023/03/11 13:22:40;;;;;;;;;;;7.40;69.20;;;;;;5056721;28;19961;-72
2023/03/11 13:25:24;;;;;;;;;;;7.50;66.50;;;;;;5098129;28;19928;-70
2023/03/11 13:27:52;;;;;;;;;;;7.60;64.80;;;;;;5095619;28;19928;-71
2023/03/11 13:30:19;;;;;;;;;;;7.70;63.20;;;;;;5092705;28;19932;-70
2023/03/11 13:33:04;;;;;;;;;;;7.80;63.90;;;;;;5085872;28;19928;-72
2023/03/11 13:35:40;;;;;;;;;;;7.90;64.60;;;;;;5087880;28;20395;-71
2023/03/11 13:38:33;;;;;;;;;;;7.90;65.50;;;;;;5086723;28;19927;-72
2023/03/11 13:41:02;;;;;;;;;;;7.90;67.20;;;;;;5056627;28;19924;-71
2023/03/11 13:43:29;;;;;;;;;;;7.90;65.10;;;;;;5096215;28;19927;-71
2023/03/11 13:45:57;;;;;;;;;;;7.90;63.40;;;;;;5095371;27;19932;-71
2023/03/11 13:48:27;;;;;;;;;;;8.00;65.10;;;;;;5091465;28;19932;-71
2023/03/11 13:50:56;;;;;;;;;;;8.00;64.50;;;;;;5089719;28;20011;-71
2023/03/11 13:53:25;;;;;;;;;;;8.10;63.90;;;;;;5093016;28;20182;-71
2023/03/11 13:55:52;;;;;;;;;;;8.10;64.40;;;;;;5091698;28;19924;-70
2023/03/11 13:58:22;;;;;;;;;;;8.10;65.10;;;;;;5092225;28;20604;-70
2023/03/11 14:00:49;;;;;;;;;;;8.20;64.10;;;;;;5091251;27;20342;-71
2023/03/11 14:03:20;;;;;;;;;;;8.90;54.40;;;;;;5095206;28;20019;-70
2023/03/11 14:05:48;;;;;;;;;;;9.50;51.00;;;;;;5097248;28;20428;-71
2023/03/11 14:08:19;;;;;;;;;;;10.00;50.80;;;;;;5095782;28;20255;-70
2023/03/11 14:10:51;;;;;;;;;;;10.40;49.10;;;;;;5097991;28;20255;-72
2023/03/11 14:13:18;;;;;;;;;;;10.60;48.40;;;;;;5098368;28;19932;-71
2023/03/11 14:15:48;;;;;;;;;;;10.80;47.60;;;;;;5098661;27;19931;-71
2023/03/11 14:18:24;;;;;;;;;;;10.80;47.40;;;;;;5094993;28;20393;-71
2023/03/11 14:20:51;;;;;;;;;;;10.50;48.60;;;;;;5090875;28;19932;-71
2023/03/11 14:23:18;;;;;;;;;;;10.10;50.80;;;;;;5097371;28;19935;-71
2023/03/11 14:25:45;;;;;;;;;;;9.80;53.00;;;;;;5093163;28;19932;-72
2023/03/11 14:28:17;;;;;;;;;;;9.50;54.10;;;;;;5098025;28;20435;-72
2023/03/11 14:30:54;;;;;;;;;;;9.50;47.40;;;;;;5098551;27;19980;-74
2023/03/11 14:33:22;;;;;;;;;;;9.40;45.30;;;;;;5104074;28;19953;-73
2023/03/11 14:35:51;;;;;;;;;;;9.20;48.60;;;;;;5098068;28;19981;-75